Columbia Regional Airport
KCOU : now visible

Airfield :











YOU CAN JOIN US ON...

 
LOGIN :

Register | Disclaimer

   EN    FR    IT 

 









Legend :    VFR   Marginal VFR   IFR   Intensive IFR   Very Intensive IFR
Visi :
Ceiling :
>= 8 km
>= 3000ft
5 to 8 km
1000 to 3000 ft
1500m to 5 km
500 to 1000 ft
800 to 1500m
200 to 500 ft
< 800m
< 200 ft
Symbols :   Thunderstorms  Fog  Heavy snow  Heavy precipitations  Wind > 20 kt






- Airport Elevation : 889 ft
- IATA code : COU


KCOU - Columbia Regional

CURRENT METAR :
  • 291254Z 19005KT 10SM CLR 21/14 A3022 RMK AO2 SLP227 T02060139

EXPIRED METARs :
  • 291154Z 17004KT 10SM CLR 18/13 A3021 RMK AO2 SLP222 T01780133 10194 20161 53006
  • 291054Z AUTO 17005KT 10SM CLR 16/13 A3020 RMK AO2 SLP220 T01610133

TAF KCOU
Valid from the 29 at 12:00 until the 30 at 12:00 UTC


291120Z 2912/3012 VRB04KT P6SM SKC
KZKC FIR / North America



MET'MAP, your aeronautical weather chart ! - Copyright ORBIFLY December 2007 - Disclaimer

ORBIFLY MET'MAP TEAM :

Programming & Development : Alexandra Zaïnal
Original concept : Baudouin d'Aumeries
Technical & hardware support : Manuel Goepfert
Assistance : Marc-Olivier Méhu




SOURCES & CREDITS :

   NOAA       Earth
Advisory